ADDS METAR Data INFO
IDs: Format: Raw Decoded Include TAF

Data at: 2158 UTC 24 Feb 2018

PABA 242152Z AUTO 26036G43KT M1/4SM +SN FZFG SCT007 OVC018 M14/M16 A2951 RMK AO2 PK WND 26045/2104 SLP979 P0000 T11391156 FZRANO TSNO
PABA 242144Z AUTO 26039G42KT M1/4SM +SN FZFG SCT007 OVC018 M14/M16 A2951 RMK AO2 PK WND 26045/2104 P0000 FZRANO TSNO
PABA 242052Z AUTO 26038G42KT 1/4SM +SN FZFG BKN007 OVC018 M14/M16 A2952 RMK AO2 PK WND 27043/2023 CIG 004V009 SLP983 P0000 60000 T11391156 58015 FZRANO TSNO
PABA 242044Z AUTO 26036G41KT 1/4SM +SN FZFG BKN007 OVC018 M14/M16 A2953 RMK AO2 PK WND 27043/2023 P0000 FZRANO TSNO
PABA 242017Z AUTO 26037G42KT 1/4SM +SN FZFG SCT007 OVC018 M14/M16 A2954 RMK AO2 PK WND 26042/2011 P0000 FZRANO TSNO
PABA 241952Z AUTO 27032G41KT 1/4SM +SN FZFG BKN007 OVC018 M14/M16 A2954 RMK AO2 PK WND 27044/1905 CIG 005V010 SLP990 P0000 T11441161 FZRANO TSNO
PABA 241939Z AUTO 27034KT 1/4SM +SN FZFG BKN007 OVC018 M14/M16 A2955 RMK AO2 PK WND 27044/1905 CIG 005V010 P0000 FZRANO TSNO
PABA 241908Z AUTO 26037G44KT M1/4SM +SN FZFG SCT007 OVC018 M14/M16 A2954 RMK AO2 PK WND 27044/1905 P0000 FZRANO TSNO
PABA 241902Z AUTO 26038G43KT M1/4SM +SN FZFG BKN007 OVC020 M14/M16 A2954 RMK AO2 PK WND 26043/1901 CIG 005V010 P0000 FZRANO TSNO
PABA 241852Z AUTO 26037G42KT 1/4SM +SN FZFG SCT009 OVC020 M14/M16 A2955 RMK AO2 PK WND 26042/1852 SLP991 P0000 T11441156 FZRANO TSNO
PABA 241848Z AUTO 26038G42KT 1/4SM +SN FZFG SCT009 OVC020 M14/M16 A2955 RMK AO2 PK WND 26042/1846 P0000 FZRANO TSNO
PABA 241840Z AUTO 27037G42KT 1/4SM +SN FZFG BKN009 OVC020 M14/M16 A2955 RMK AO2 PK WND 26042/1840 CIG 006V010 PRESFR P0000 FZRANO TSNO
PABA 241752Z AUTO 27036G42KT 1/4SM +SN FZFG FEW008 OVC020 M14/M16 A2957 RMK AO2 PK WND 27042/1746 SLP998 P0000 60000 T11441161 11144 21150 56020 FZRANO TSNO
PABA 241739Z AUTO 27034G40KT 1/4SM +SN FZFG SCT008 OVC020 M14/M16 A2957 RMK AO2 PK WND 26040/1736 P0000 FZRANO TSNO
PABA 241657Z AUTO 27031G38KT 1/4SM SN FZFG SCT008 OVC018 M14/M16 A2958 RMK AO2 PK WND 27035/1655 P0000 FZRANO TSNO
PABA 241652Z AUTO 27034G38KT 1/2SM SN FZFG FEW008 OVC018 M14/M16 A2958 RMK AO2 PK WND 27039/1622 SLP003 P0000 T11441161 FZRANO TSNO
PABA 241556Z AUTO 27032KT 1/2SM SN FZFG FEW008 OVC022 M15/M17 A2960 RMK AO2 PK WND 27036/1556 P0000 FZRANO TSNO
PABA 241552Z AUTO 27031G37KT 1/2SM SN FZFG OVC022 M15/M17 A2961 RMK AO2 PK WND 27038/1517 SLP012 P0000 T11501167 FZRANO TSNO
PABA 241517Z AUTO 27033G38KT 1/2SM SN FZFG SCT008 OVC020 M15/M17 A2962 RMK AO2 PK WND 27038/1517 P0000 FZRANO TSNO
PABA 241452Z AUTO 27028G35KT 1/2SM SN FZFG OVC006 M15/M17 A2963 RMK AO2 PK WND 27035/1445 CIG 003V012 SLP018 P0000 60000 T11501167 58029 FZRANO TSNO
PABA 241440Z AUTO 27030G34KT 1/2SM SN FZFG BKN006 OVC010 M15/M17 A2964 RMK AO2 PK WND 27035/1420 CIG 003V009 P0000 FZRANO TSNO
PABA 241426Z AUTO 27026G35KT 1/4SM +SN FZFG OVC009 M14/M16 A2964 RMK AO2 PK WND 27035/1420 CIG 004V010 P0000 FZRANO TSNO
PABA 241357Z AUTO 27027G33KT 1/2SM SN FZFG BKN009 OVC027 M14/M16 A2966 RMK AO2 PK WND 27033/1354 P0000 FZRANO TSNO
PABA 241352Z AUTO 27025G34KT 1/2SM SN FZFG SCT009 OVC027 M14/M16 A2966 RMK AO2 PK WND 27035/1340 SLP030 P0000 T11441161 FZRANO TSNO
PABA 241347Z AUTO 27026G35KT 3/4SM -SN BR FEW009 OVC027 M15/M16 A2966 RMK AO2 PK WND 27035/1340 P0000 FZRANO TSNO
PABA 241331Z AUTO 27027G34KT 1SM -SN BR OVC025 M15/M17 A2967 RMK AO2 PK WND 27034/1323 P0000 FZRANO TSNO
PABA 241313Z AUTO 27027KT 1 1/4SM -SN BR OVC023 M15/M17 A2968 RMK AO2 PK WND 28033/1304 P0000 FZRANO TSNO
PABA 241257Z AUTO 27027G33KT 1SM -SN BR BKN019 OVC024 M15/M17 A2969 RMK AO2 PK WND 27033/1255 P0000 FZRANO TSNO
PABA 241252Z AUTO 27030KT 1 1/4SM -SN BR OVC019 M15/M17 A2969 RMK AO2 PK WND 27034/1153 SLP038 P0000 T11501167 FZRANO TSNO
PABA 241210Z AUTO 27027KT 1 1/4SM -SN BR OVC023 M15/M17 A2971 RMK AO2 PK WND 27034/1153 P0000 FZRANO TSNO
PABA 241205Z AUTO 27026KT 1SM -SN BR OVC023 M15/M17 A2971 RMK AO2 PK WND 27034/1153 P0000 FZRANO TSNO
PABA 241156Z AUTO 27028KT 3/4SM -SN BR FEW010 OVC023 M15/M17 A2971 RMK AO2 PK WND 27034/1153 P0000 FZRANO TSNO
PABA 241152Z AUTO 27030G36KT 1SM -SN BR FEW010 OVC023 M15/M17 A2971 RMK AO2 PK WND 27036/1143 SLP048 P0000 60000 70071 T11501167 11144 21150 56017 FZRANO TSNO
PABA 241137Z AUTO 27027KT 1SM -SN BR FEW010 BKN016 OVC023 M14/M16 A2971 RMK AO2 PK WND 27036/1122 P0000 FZRANO TSNO
PABA 241131Z AUTO 27028G36KT 1SM -SN BR SCT010 BKN014 OVC025 M14/M16 A2972 RMK AO2 PK WND 27036/1122 P0000 FZRANO TSNO
PABA 241123Z AUTO 27029G36KT 3/4SM -SN BR BKN014 OVC025 M14/M16 A2972 RMK AO2 PK WND 27036/1122 P0000 FZRANO TSNO
PABA 241119Z AUTO 27029KT 3/4SM -SN BR SCT014 BKN018 OVC025 M14/M16 A2972 RMK AO2 PK WND 27035/1112 P0000 FZRANO TSNO
PABA 241112Z AUTO 27032KT 3/4SM -SN BR BKN014 OVC025 M14/M16 A2972 RMK AO2 PK WND 27035/1112 P0000 FZRANO TSNO
PABA 241106Z AUTO 27031G34KT 3/4SM -SN BR BKN016 OVC023 M14/M16 A2972 RMK AO2 PK WND 27035/1103 P0000 FZRANO TSNO
PABA 241102Z AUTO 27031G35KT 3/4SM -SN BR BKN014 OVC021 M14/M16 A2972 RMK AO2 PK WND 26035/1055 P0000 FZRANO TSNO
PABA 241052Z AUTO 27030G35KT 3/4SM -SN BR BKN016 BKN021 OVC026 M14/M16 A2972 RMK AO2 PK WND 27036/1020 SLP050 P0000 T11441161 FZRANO TSNO
PABA 241016Z AUTO 27026G33KT 3/4SM -SN BR OVC014 M14/M16 A2974 RMK AO2 PK WND 27033/1009 P0000 FZRANO TSNO
PABA 241012Z AUTO 27027G33KT 1SM -SN BR BKN014 OVC034 M14/M16 A2975 RMK AO2 PK WND 27033/1009 P0000 FZRANO TSNO
PABA 241007Z AUTO 27028KT 3/4SM -SN BR FEW009 BKN014 OVC034 M14/M16 A2975 RMK AO2 PK WND 27033/1001 P0000 FZRANO TSNO
PABA 241004Z AUTO 27029G33KT 3/4SM -SN BR BKN014 OVC034 M14/M16 A2975 RMK AO2 PK WND 27033/1001 P0000 FZRANO TSNO
PABA 240952Z AUTO 27027KT 1SM -SN BR BKN014 OVC034 M15/M16 A2975 RMK AO2 PK WND 27034/0923 SLP061 P0000 T11501161 FZRANO TSNO
PABA 240945Z AUTO 27029KT 1SM -SN BR BKN014 OVC034 M15/M16 A2975 RMK AO2 PK WND 27034/0923 P0000 FZRANO TSNO
PABA 240941Z AUTO 27028KT 3/4SM -SN BR BKN014 OVC034 M15/M17 A2976 RMK AO2 PK WND 27034/0923 P0000 FZRANO TSNO
PABA 240924Z AUTO 27029G34KT 1SM -SN BR BKN014 BKN030 OVC040 M15/M17 A2976 RMK AO2 PK WND 27034/0923 P0000 FZRANO TSNO
PABA 240917Z AUTO 27028G34KT 3/4SM -SN BR BKN014 BKN030 OVC042 M15/M17 A2976 RMK AO2 PK WND 26034/0912 P0000 FZRANO TSNO
PABA 240852Z AUTO 27028KT 3/4SM -SN BR BKN016 BKN038 OVC048 M15/M17 A2977 RMK AO2 PK WND 26034/0839 SLP065 P0000 60000 T11501167 410941167 56021 FZRANO TSNO
PABA 240847Z AUTO 26028G34KT 3/4SM -SN BR BKN016 BKN030 OVC050 M15/M17 A2976 RMK AO2 PK WND 26034/0839 P0000 FZRANO TSNO
PABA 240752Z AUTO 27028KT 3/4SM -SN BR OVC050 M15/M17 A2979 RMK AO2 PK WND 26036/0727 SLP073 P0000 T11501167 FZRANO TSNO
PABA 240749Z AUTO 26029G34KT 3/4SM -SN BR OVC050 M15/M17 A2978 RMK AO2 PK WND 26036/0727 P0000 FZRANO TSNO
PABA 240652Z AUTO 26032KT 1/2SM SN FZFG OVC050 M15/M17 A2979 RMK AO2 PK WND 27039/0637 SLP074 P0000 T11501167 FZRANO TSNO
PABA 240552Z AUTO 27034G38KT 1/2SM SN FZFG OVC050 M15/M17 A2983 RMK AO2 PK WND 27041/0501 SLP086 P0000 60000 T11501167 11150 21167 58018 FZRANO TSNO
PABA 240529Z AUTO 27032KT 1/2SM SN FZFG FEW023 OVC050 M15/M17 A2984 RMK AO2 PK WND 27041/0501 P0000 FZRANO TSNO
PABA 240456Z AUTO 27033G40KT 1/4SM +SN FZFG SCT011 SCT019 OVC055 M16/M17 A2984 RMK AO2 PK WND 26040/0454 P0000 FZRANO TSNO
PABA 240452Z AUTO 27034G39KT 1/2SM SN FZFG SCT011 SCT019 OVC055 M16/M17 A2984 RMK AO2 PK WND 27043/0403 SLP090 P0000 T11561172 FZRANO TSNO
PABA 240448Z AUTO 27035KT 1/2SM SN FZFG SCT011 SCT019 OVC055 M16/M17 A2984 RMK AO2 PK WND 27043/0403 P0000 FZRANO TSNO
PABA 240443Z AUTO 27033KT 1/2SM SN FZFG SCT011 BKN019 OVC055 M16/M17 A2985 RMK AO2 PK WND 27043/0403 P0000 FZRANO TSNO
PABA 240434Z AUTO 27035KT 1/2SM SN FZFG BKN011 BKN017 OVC050 M16/M17 A2985 RMK AO2 PK WND 27043/0403 CIG 007V014 P0000 FZRANO TSNO
PABA 240431Z AUTO 27033G39KT 1/2SM SN FZFG SCT011 BKN017 OVC050 M16/M17 A2985 RMK AO2 PK WND 27043/0403 P0000 FZRANO TSNO
PABA 240427Z AUTO 27035G39KT 1/4SM +SN FZFG SCT011 BKN017 OVC050 M16/M17 A2985 RMK AO2 PK WND 27043/0403 P0000 FZRANO TSNO
PABA 240424Z AUTO 27035G39KT 1/2SM SN FZFG SCT011 BKN017 OVC050 M16/M17 A2985 RMK AO2 PK WND 27043/0403 P0000 FZRANO TSNO
PABA 240419Z AUTO 27032G39KT 1/2SM SN FZFG SCT011 SCT017 OVC055 M16/M17 A2986 RMK AO2 PK WND 27043/0403 P0000 FZRANO TSNO
PABA 240409Z AUTO 27035G43KT 1/4SM +SN FZFG FEW013 OVC055 M16/M17 A2986 RMK AO2 PK WND 27043/0403 P0000 FZRANO TSNO
PABA 240352Z AUTO 27035G40KT 1/2SM SN FZFG OVC055 M16/M17 A2987 RMK AO2 PK WND 27043/0254 SLP100 P0000 T11561172 FZRANO TSNO
PABA 240322Z AUTO 27035G41KT 1/2SM SN FZFG FEW008 OVC060 M16/M18 A2988 RMK AO2 PK WND 27043/0254 P0000 FZRANO TSNO
PABA 240255Z AUTO 27038G43KT 1/4SM +SN FZFG FEW007 OVC070 M16/M18 A2987 RMK AO2 PK WND 27043/0254 P0000 FZRANO TSNO
PABA 240252Z AUTO 27036KT 1/4SM +SN FZFG OVC070 M16/M18 A2988 RMK AO2 PK WND 26042/0232 SLP103 P0000 60000 T11611178 58007 FZRANO TSNO
PABA 240234Z AUTO 27035G42KT 1/4SM +SN FZFG FEW006 SCT010 BKN070 M17/M18 A2988 RMK AO2 PK WND 26042/0232 P0000 FZRANO TSNO
PABA 240223Z AUTO 26033G39KT 1/4SM SN FZFG FEW004 SCT008 BKN013 M16/M18 A2989 RMK AO2 PK WND 27041/0153 P0000 FZRANO TSNO
PABA 240220Z AUTO 26033G38KT 1/4SM SN FZFG SCT010 BKN016 BKN024 M16/M18 A2989 RMK AO2 PK WND 27041/0153 P0000 FZRANO TSNO
PABA 240214Z AUTO 26033G40KT 1/4SM SN FZFG SCT007 BKN013 BKN019 M16/M18 A2989 RMK AO2 PK WND 27041/0153 P0000 FZRANO TSNO
PABA 240152Z AUTO 27037KT 1/4SM +SN FZFG BKN011 OVC070 M16/M18 A2990 RMK AO2 PK WND 27044/0053 SLP109 P0000 T11611178 FZRANO TSNO
PABA 240146Z AUTO 26033G40KT 1/4SM SN FZFG FEW008 BKN013 OVC070 M16/M18 A2990 RMK AO2 PK WND 27044/0053 P0000 FZRANO TSNO
PABA 240110Z AUTO 27037G43KT 1/4SM +SN FZFG FEW007 SCT020 OVC060 M16/M17 A2990 RMK AO2 PK WND 27044/0053 P0000 FZRANO TSNO
PABA 240104Z AUTO 27035G40KT 1/4SM +SN FZFG FEW007 BKN024 OVC060 M16/M17 A2991 RMK AO2 PK WND 27044/0053 P0000 FZRANO TSNO
PABA 240052Z AUTO 27038G45KT M1/4SM +SN FZFG SCT008 BKN013 OVC060 M16/M17 A2991 RMK AO2 PK WND 27046/0022 SLP113 P0000 T11561172 FZRANO TSNO
PABA 240046Z AUTO 27039G45KT M1/4SM +SN FZFG FEW004 BKN011 OVC021 M16/M17 A2991 RMK AO2 PK WND 27046/0022 CIG 008V013 P0000 FZRANO TSNO
PABA 240014Z AUTO 27037G42KT M1/4SM +SN FZFG BKN006 OVC011 M16/M18 A2990 RMK AO2 PK WND 27043/2359 CIG 002V009 P0000 FZRANO TSNO
PABA 240007Z AUTO 27036G41KT M1/4SM +SN FZFG BKN004 BKN008 OVC023 M16/M18 A2990 RMK AO2 PK WND 27043/2359 CIG 002V007 P0000 FZRANO TSNO
PABA 240003Z AUTO 27035G43KT M1/4SM +SN FZFG SCT004 BKN010 OVC023 M16/M18 A2990 RMK AO2 PK WND 27043/2359 CIG 008V013 P0000 FZRANO TSNO
PABA 232352Z AUTO 27038G46KT M1/4SM +SN FZFG BKN004 BKN010 OVC065 M16/M17 A2990 RMK AO2 PK WND 26048/2312 CIG 002V007 SLP110 P0000 60000 T11561172 11144 21161 50001 FZRANO TSNO
PABA 232346Z AUTO 27040G45KT M1/4SM +SN FZFG BKN004 BKN010 OVC065 M16/M17 A2990 RMK AO2 PK WND 26048/2312 CIG 002V007 P0000 FZRANO TSNO
PABA 232332Z AUTO 27039G45KT M1/4SM +SN FZFG SCT004 BKN010 OVC065 M16/M17 A2990 RMK AO2 PK WND 26048/2312 CIG 006V013 P0000 FZRANO TSNO
PABA 232257Z AUTO 26036G41KT 1/4SM +SN FZFG OVC008 M16/M18 A2991 RMK AO2 PK WND 26040/2257 CIG 005V012 P0000 FZRANO TSNO
PABA 232252Z AUTO 27035G41KT 1/4SM +SN FZFG OVC010 M16/M18 A2991 RMK AO2 PK WND 27043/2200 CIG 005V012 SLP114 P0000 T11611178 FZRANO TSNO
PABA 232220Z AUTO 27034G41KT 1/4SM +SN FZFG FEW004 OVC010 M16/M18 A2992 RMK AO2 PK WND 27043/2200 CIG 007V014 P0000 FZRANO TSNO
PABA 232202Z AUTO 27039G43KT 1/4SM +SN FZFG OVC007 M16/M18 A2992 RMK AO2 PK WND 27043/2200 CIG 002V010 P0000 FZRANO TSNO
PABA 232152Z AUTO 27037G42KT M1/4SM +SN FZFG BKN005 OVC010 M16/M18 A2992 RMK AO2 PK WND 27046/2058 CIG 002V008 SLP117 P0000 T11611178 FZRANO TSNO
PABA 232128Z AUTO 28036G45KT M1/4SM +SN FZFG BKN005 BKN011 OVC032 M16/M18 A2992 RMK AO2 PK WND 27046/2058 CIG 003V009 P0000 FZRANO TSNO
PABA 232120Z AUTO 27038G45KT M1/4SM +SN FZFG FEW005 BKN010 OVC030 M16/M18 A2992 RMK AO2 PK WND 27046/2058 CIG 006V012 P0000 FZRANO TSNO
PABA 232107Z AUTO 27038G46KT M1/4SM +SN FZFG BKN008 BKN014 OVC034 M16/M17 A2991 RMK AO2 PK WND 27046/2058 CIG 004V011 P0000 FZRANO TSNO
PABA 232101Z AUTO 27038G46KT M1/4SM +SN FZFG SCT005 BKN010 OVC015 M16/M17 A2991 RMK AO2 PK WND 27046/2058 CIG 008V014 P0000 FZRANO TSNO
PABA 232056Z AUTO 27035G45KT M1/4SM +SN FZFG BKN007 OVC015 M15/M17 A2991 RMK AO2 PK WND 27042/2054 CIG 004V013 P0000 FZRANO TSNO
PABA 232048Z AUTO 27038G42KT M1/4SM +SN FZFG BKN005 BKN010 OVC015 M15/M17 A2990 RMK AO2 PK WND 27046/2027 CIG 004V008 P0000 FZRANO TSNO
PABA 232039Z AUTO 27033G39KT 1/4SM +SN FZFG FEW005 BKN010 OVC013 M15/M17 A2992 RMK AO2 PK WND 27046/2027 CIG 008V012 P0000 FZRANO TSNO
PABA 231952Z AUTO 27033KT M1/4SM +SN FZFG SCT004 BKN009 OVC033 M15/M17 A2992 RMK AO2 PK WND 27047/1938 CIG 007V013 SLP117 P0000 T11501167 FZRANO TSNO
PABA 231921Z AUTO 26038G44KT M1/4SM +SN FZFG OVC008 M15/M17 A2989 RMK AO2 PK WND 26044/1919 CIG 003V012 P0000 FZRANO TSNO
PABA 231917Z AUTO 26035G43KT M1/4SM +SN FZFG SCT006 OVC011 M15/M17 A2990 RMK AO2 PK WND 27043/1908 P0000 FZRANO TSNO
PABA 231902Z AUTO 27034G40KT M1/4SM +SN FZFG BKN008 OVC014 M15/M17 A2990 RMK AO2 PK WND 27040/1859 CIG 005V011 P0000 FZRANO TSNO
PABA 231852Z AUTO 27038G43KT M1/4SM +SN FZFG FEW008 BKN011 OVC016 M15/M17 A2989 RMK AO2 PK WND 27045/1755 SLP109 P0000 T11501167 FZRANO TSNO
PABA 231848Z AUTO 27035G42KT M1/4SM +SN FZFG FEW008 BKN011 OVC016 M15/M17 A2990 RMK AO2 PK WND 27045/1755 P0000 FZRANO TSNO
PABA 231844Z AUTO 27036G42KT M1/4SM +SN FZFG BKN008 OVC014 M15/M17 A2990 RMK AO2 PK WND 27045/1755 CIG 005V011 P0000 FZRANO TSNO
PABA 231837Z AUTO 27037G43KT M1/4SM +SN FZFG SCT008 OVC014 M15/M17 A2989 RMK AO2 PK WND 27045/1755 P0000 FZRANO TSNO
PABA 231833Z AUTO 27038G43KT M1/4SM +SN FZFG BKN011 OVC016 M15/M17 A2989 RMK AO2 PK WND 27045/1755 CIG 004V013 P0000 FZRANO TSNO
PABA 231826Z AUTO 27040G43KT M1/4SM +SN FZFG FEW008 BKN015 OVC025 M15/M17 A2988 RMK AO2 PK WND 27045/1755 P0000 FZRANO TSNO
PABA 231821Z AUTO 27038G43KT M1/4SM +SN FZFG FEW007 BKN013 OVC024 M15/M17 A2988 RMK AO2 PK WND 27045/1755 P0000 FZRANO TSNO
PABA 231804Z AUTO 27037G45KT M1/4SM +SN FZFG FEW006 BKN016 OVC031 M15/M17 A2988 RMK AO2 PK WND 27045/1755 P0000 FZRANO TSNO
PABA 231752Z AUTO 27037G45KT M1/4SM +SN FZFG FEW003 BKN009 OVC015 M15/M17 A2988 RMK AO2 PK WND 27049/1712 CIG 006V011 SLP103 P0000 60071 T11501167 11117 21156 53013 FZRANO TSNO
PABA 231730Z AUTO 27039G47KT M1/4SM +SN FZFG OVC007 M16/M17 A2987 RMK AO2 PK WND 27049/1712 CIG 002V010 P0000 FZRANO TSNO
PABA 231711Z AUTO 27040G47KT M1/4SM +SN FZFG BKN005 OVC013 M15/M17 A2986 RMK AO2 PK WND 27047/1711 CIG 002V010 P0000 FZRANO TSNO
PABA 231704Z AUTO 27041G45KT M1/4SM +SN FZFG SCT005 BKN009 OVC013 M15/M17 A2986 RMK AO2 PK WND 28045/1704 CIG 008V011 P0000 FZRANO TSNO
PABA 231659Z AUTO 27041G45KT 1/4SM +SN FZFG SCT005 BKN011 OVC014 M15/M17 A2986 RMK AO2 PK WND 28045/1659 CIG 008V012 P0000 FZRANO TSNO
PABA 231652Z AUTO 28041G46KT 1/4SM +SN FZFG BKN005 BKN009 OVC026 M14/M16 A2986 RMK AO2 PK WND 27047/1627 CIG 003V007 SLP095 P0000 T11441161 FZRANO TSNO
PABA 231647Z AUTO 27035G46KT 1/4SM +SN FZFG SCT005 BKN009 OVC028 M14/M16 A2986 RMK AO2 PK WND 27047/1627 CIG 008V014 P0000 FZRANO TSNO
PABA 231635Z AUTO 27037G44KT 1/4SM +SN FZFG BKN005 BKN010 OVC028 M14/M16 A2985 RMK AO2 PK WND 27047/1627 CIG 003V009 P0000 FZRANO TSNO
PABA 231625Z AUTO 27040G44KT 1/4SM +SN FZFG OVC007 M14/M15 A2984 RMK AO2 PK WND 27044/1625 CIG 004V011 P0000 FZRANO TSNO
PABA 231614Z AUTO 28031KT 1/2SM SN FZFG OVC007 M13/M15 A2985 RMK AO2 PK WND 27041/1604 CIG 004V010 P0000 FZRANO TSNO
PABA 231604Z AUTO 27037KT 1/4SM +SN FZFG BKN007 OVC013 M13/M15 A2984 RMK AO2 PK WND 27041/1604 CIG 005V010 P0000 FZRANO TSNO
PABA 231555Z AUTO 27035G39KT 1/2SM SN FZFG BKN007 BKN013 OVC018 M13/M14 A2984 RMK AO2 PK WND 28039/1555 CIG 005V011 P0000 FZRANO TSNO
PABA 231552Z AUTO 27031G38KT 1/4SM +SN FZFG BKN007 OVC013 M13/M14 A2984 RMK AO2 PK WND 28044/1530 CIG 005V010 SLP090 P0000 T11331144 FZRANO TSNO
PABA 231548Z AUTO 28035G42KT 1/4SM +SN FZFG SCT007 OVC013 M13/M14 A2984 RMK AO2 PK WND 28044/1530 P0000 FZRANO TSNO
PABA 231543Z AUTO 28035G42KT 1/2SM SN FZFG BKN010 OVC016 M13/M14 A2983 RMK AO2 PK WND 28044/1530 CIG 007V012 P0000 FZRANO TSNO
PABA 231518Z AUTO 28036G43KT 1/4SM +SN FZFG OVC010 M13/M14 A2983 RMK AO2 PK WND 27043/1510 CIG 006V013 P0000 FZRANO TSNO
PABA 231452Z AUTO 27037G43KT 1/4SM +SN FZFG BKN008 OVC024 M12/M14 A2982 RMK AO2 PK WND 27043/1452 CIG 006V012 SLP084 P0069 60071 T11221139 50017 FZRANO TSNO
PABA 231446Z AUTO 27037KT 1/2SM SN FZFG BKN008 BKN013 OVC026 M12/M13 A2982 RMK AO2 PK WND 27039/1445 P0062 FZRANO TSNO
PABA 231441Z AUTO 27031G37KT 1/2SM SN FZFG SCT008 BKN013 OVC027 M12/M13 A2982 RMK AO2 PK WND 27037/1439 P0036 FZRANO TSNO
PABA 231438Z AUTO 27030KT 3/4SM -SN BR FEW008 SCT013 OVC022 M12/M13 A2982 RMK AO2 PK WND 27035/1416 P0019 FZRANO TSNO
PABA 231427Z AUTO 27028KT 3/4SM -SN BR SCT010 BKN015 OVC025 M12/M14 A2982 RMK AO2 PK WND 27035/1416 P0019 FZRANO TSNO
PABA 231424Z AUTO 27030KT 3/4SM -SN BR BKN010 BKN015 OVC022 M12/M14 A2982 RMK AO2 PK WND 27035/1416 CIG 007V013 P0019 FZRANO TSNO
PABA 231416Z AUTO 27031G35KT 1/2SM SN FZFG SCT008 BKN012 OVC031 M12/M14 A2981 RMK AO2 PK WND 27035/1416 P0018 FZRANO TSNO
PABA 231408Z AUTO 27028G35KT 1/2SM SN FZFG BKN008 BKN016 OVC034 M12/M13 A2981 RMK AO2 PK WND 27035/1405 CIG 007V012 P0002 FZRANO TSNO
PABA 231406Z AUTO 27030G35KT 3/4SM -SN BR SCT008 BKN016 OVC034 M12/M13 A2981 RMK AO2 PK WND 27035/1405 P0002 FZRANO TSNO
PABA 231358Z AUTO 27026G33KT 3/4SM -SN BR FEW010 BKN029 OVC034 M12/M13 A2980 RMK AO2 PK WND 27031/1354 P0000 FZRANO TSNO
PABA 231352Z AUTO 27030G33KT 1SM -SN BR FEW012 BKN031 OVC035 M12/M13 A2979 RMK AO2 PK WND 27033/1352 SLP074 P0002 T11171133 FZRANO TSNO
PABA 231337Z AUTO 27025KT 1 3/4SM -SN BR FEW024 OVC031 M12/M13 A2979 RMK AO2 PK WND 27028/1336 P0002 FZRANO TSNO
PABA 231323Z AUTO 28023G28KT 1 3/4SM -SN BR FEW016 SCT023 OVC028 M12/M13 A2979 RMK AO2 PK WND 28028/1323 P0000 FZRANO TSNO
PABA 231307Z AUTO 28021KT 2SM -SN BR BKN021 OVC029 M12/M13 A2978 RMK AO2 PK WND 28028/1255 P0000 FZRANO TSNO
PABA 231252Z AUTO 27024KT 1 3/4SM -SN BR BKN024 OVC030 M12/M13 A2977 RMK AO2 PK WND 27027/1252 SLP067 P0000 T11171133 FZRANO TSNO
PABA 231235Z AUTO 28021KT 2 1/2SM -SN BR SCT021 BKN028 OVC036 M12/M13 A2976 RMK AO2 PK WND 28027/1233 VIS 2V4 P0000 FZRANO TSNO
PABA 231152Z AUTO 29018KT 3SM -SN BR BKN021 BKN025 OVC030 M11/M12 A2974 RMK AO2 SLP057 P0000 60000 T11061122 11089 21106 53031 FZRANO TSNO
PABA 231138Z AUTO 29018KT 2SM -SN BR FEW017 BKN024 OVC030 M11/M12 A2973 RMK AO2 P0000 FZRANO TSNO
PABA 231119Z AUTO 29015KT 4SM -SN BR FEW015 OVC023 M10/M12 A2972 RMK AO2 P0000 FZRANO TSNO
PABA 231114Z AUTO 29016KT 2 1/2SM -SN BR BKN018 OVC023 M10/M12 A2972 RMK AO2 P0000 FZRANO TSNO
PABA 231052Z AUTO 29012KT 1 3/4SM -SN BR BKN016 OVC022 M10/M11 A2970 RMK AO2 SLP043 P0000 T11001111 FZRANO TSNO
PABA 231030Z AUTO 32011KT 1 1/2SM -SN BR SCT014 BKN020 OVC024 M10/M11 A2969 RMK AO2 P0000 FZRANO TSNO
PABA 231027Z AUTO 32012KT 2SM -SN BR SCT016 OVC024 M10/M11 A2969 RMK AO2 VIS 1V5 P0000 FZRANO TSNO
PABA 231012Z AUTO 31008KT 3SM -SN BR FEW014 OVC023 M09/M11 A2968 RMK AO2 P0000 FZRANO TSNO
PABA 231003Z AUTO 31007KT 2 1/2SM -SN BR FEW014 BKN019 OVC025 M09/M11 A2968 RMK AO2 P0000 FZRANO TSNO